Easton, Massachusetts
Current Conditions -  °F | °C
As of 5:52 PM on Sunday 21 Dec 2014 (Local Time) from KTAN Reporting Station
Overcast Overcast  
Wind Chill: 34°   Ceiling: 700
Heat Index: 34°   Visibility: 8mi
Dew Point: 32°   Wind: 3mph
Humidity: 92%   Direction: 350°N
Pressure: 30.31"   Gusts: NA
Location:  42.02°N, 71.13°W
Report Text: KTAN 212252Z AUTO 35003KT 8SM OVC007 01/00 A3031 RMK AO2 SLP264 T00110000
Loading
Personal Weather Stations






























Interactive Weather Map New forecast layout! Learn more

10-Day Weather Forecast

Advertisements
Track Severe Weather on mobile